Time;durP1;ratioP1;P1;durP2;ratioP2;P2;SDS_P1;SDS_P2;PMS_P1;PMS_P2;Temp;Humidity;BMP_temperature;BMP_pressure;BME280_temperature;BME280_humidity;BME280_pressure;Samples;Min_cycle;Max_cycle;Signal;HPM_P1;HPM_P2
2021/01/23 00:01:28;;;;;;;25.55;10.40;;;;;;;4.65;73.95;98339.69;4416742;32;20053;-77
2021/01/23 00:03:54;;;;;;;31.25;10.90;;;;;;;4.55;73.93;98345.69;4418289;32;20451;-77
2021/01/23 00:06:19;;;;;;;20.27;9.07;;;;;;;4.52;74.24;98341.81;4418424;32;20090;-77
2021/01/23 00:08:46;;;;;;;26.92;10.32;;;;;;;4.49;74.24;98339.16;4415570;32;20465;-77
2021/01/23 00:11:12;;;;;;;21.70;9.93;;;;;;;4.49;74.16;98339.94;4413522;32;20545;-76
2021/01/23 00:13:38;;;;;;;18.95;9.60;;;;;;;4.43;73.89;98336.19;4416402;32;20064;-78
2021/01/23 00:16:04;;;;;;;24.23;9.82;;;;;;;4.40;74.10;98334.31;4417245;32;20029;-77
2021/01/23 00:18:30;;;;;;;19.02;8.73;;;;;;;4.34;74.61;98329.78;4415276;32;20582;-77
2021/01/23 00:20:56;;;;;;;20.48;9.27;;;;;;;4.29;74.91;98330.38;4416309;32;20109;-77
2021/01/23 00:23:21;;;;;;;18.75;9.20;;;;;;;4.30;74.99;98331.91;4414947;32;20584;-77
2021/01/23 00:25:47;;;;;;;19.35;8.73;;;;;;;4.36;74.28;98322.53;4413011;32;20139;-78
2021/01/23 00:28:13;;;;;;;22.62;9.73;;;;;;;4.25;74.67;98315.78;4414976;32;20026;-77
2021/01/23 00:30:39;;;;;;;17.50;9.07;;;;;;;4.18;75.02;98319.63;4415131;32;20046;-77
2021/01/23 00:33:05;;;;;;;20.85;9.50;;;;;;;4.14;75.54;98318.97;4415792;32;20073;-77
2021/01/23 00:35:30;;;;;;;20.25;9.02;;;;;;;4.08;75.55;98313.22;4417374;32;20077;-76
2021/01/23 00:37:57;;;;;;;23.65;9.25;;;;;;;4.09;75.81;98314.00;4417148;32;20042;-77
2021/01/23 00:40:22;;;;;;;21.83;9.57;;;;;;;4.12;76.04;98325.00;4414576;32;20080;-78
2021/01/23 00:42:50;;;;;;;23.98;9.88;;;;;;;4.07;76.14;98324.81;4416543;32;20030;-77
2021/01/23 00:45:15;;;;;;;17.60;8.85;;;;;;;4.09;76.02;98316.78;4417665;32;20375;-78
2021/01/23 00:47:41;;;;;;;22.05;10.55;;;;;;;4.03;75.99;98326.94;4416280;32;20050;-77
2021/01/23 00:50:07;;;;;;;23.23;9.75;;;;;;;4.04;76.35;98325.72;4415907;32;20096;-77
2021/01/23 00:52:33;;;;;;;23.38;9.73;;;;;;;4.01;76.37;98329.41;4415297;32;20099;-77
2021/01/23 00:54:59;;;;;;;20.15;8.90;;;;;;;4.03;76.16;98332.50;4416175;32;20041;-76
2021/01/23 00:57:25;;;;;;;24.98;10.88;;;;;;;4.05;75.69;98327.25;4417013;32;20109;-78
2021/01/23 00:59:50;;;;;;;18.40;9.98;;;;;;;4.05;75.34;98330.03;4413746;32;20068;-77
2021/01/23 01:02:16;;;;;;;20.25;10.63;;;;;;;4.31;73.58;98341.81;4416483;32;20427;-76
2021/01/23 01:04:42;;;;;;;19.77;10.57;;;;;;;4.06;75.03;98331.59;4416843;32;20111;-76
2021/01/23 01:07:08;;;;;;;24.75;10.60;;;;;;;4.48;74.11;98324.44;4415157;32;20105;-76
2021/01/23 01:09:33;;;;;;;22.10;10.65;;;;;;;4.03;75.59;98327.72;4417167;32;20500;-77
2021/01/23 01:11:59;;;;;;;20.52;9.80;;;;;;;4.02;75.62;98336.53;4416396;32;20103;-77
2021/01/23 01:14:25;;;;;;;22.45;10.13;;;;;;;4.04;75.23;98329.28;4418776;32;20058;-77
2021/01/23 01:16:51;;;;;;;23.60;11.98;;;;;;;3.96;75.89;98330.75;4415715;32;20088;-77
2021/01/23 01:19:17;;;;;;;22.50;10.45;;;;;;;3.93;75.94;98319.78;4414726;32;20038;-77
2021/01/23 01:21:42;;;;;;;22.50;10.85;;;;;;;3.94;76.05;98318.53;4415778;32;20101;-76
2021/01/23 01:24:08;;;;;;;21.85;10.93;;;;;;;3.94;75.98;98319.31;4416975;32;20049;-77
2021/01/23 01:26:34;;;;;;;25.80;11.70;;;;;;;3.84;76.34;98326.00;4414856;32;20415;-77
2021/01/23 01:29:00;;;;;;;33.05;10.15;;;;;;;3.81;75.97;98326.91;4413533;32;20434;-76
2021/01/23 01:31:25;;;;;;;23.77;10.50;;;;;;;3.80;76.56;98328.16;4416939;32;20041;-77
2021/01/23 01:33:51;;;;;;;18.77;10.32;;;;;;;3.81;76.71;98326.91;4416897;32;20465;-76
2021/01/23 01:36:17;;;;;;;21.23;10.90;;;;;;;3.66;76.75;98322.31;4415834;32;20046;-77
2021/01/23 01:38:42;;;;;;;24.33;10.25;;;;;;;3.66;77.13;98322.31;4415641;32;20420;-76
2021/01/23 01:41:08;;;;;;;17.92;9.73;;;;;;;3.67;77.20;98324.66;4415064;32;20037;-77
2021/01/23 01:43:34;;;;;;;19.42;8.90;;;;;;;3.70;76.55;98322.97;4415483;32;20049;-75
2021/01/23 01:46:02;;;;;;;16.65;9.23;;;;;;;3.78;76.50;98316.69;4417398;32;20103;-76
2021/01/23 01:48:28;;;;;;;32.15;13.00;;;;;;;3.82;76.65;98319.34;4414299;32;20104;-77
2021/01/23 01:50:54;;;;;;;23.98;11.65;;;;;;;3.82;76.33;98322.16;4415369;32;20061;-77
2021/01/23 01:53:22;;;;;;;20.20;11.15;;;;;;;3.83;76.50;98323.69;4413853;32;20038;-76
2021/01/23 01:55:49;;;;;;;23.80;10.65;;;;;;;3.84;76.78;98322.47;4416923;32;20030;-76
2021/01/23 01:58:16;;;;;;;21.75;9.73;;;;;;;3.86;76.67;98326.34;4412695;32;20428;-75
2021/01/23 02:00:42;;;;;;;17.85;10.65;;;;;;;3.89;76.77;98327.44;4415636;32;20117;-76
2021/01/23 02:06:33;;;;;;;18.10;9.80;;;;;;;4.40;75.56;98333.53;4005355;31;15153083;-78
2021/01/23 02:09:38;;;;;;;12.73;7.07;;;;;;;4.40;75.56;98333.53;4458832;32;20127;-77
2021/01/23 02:12:16;;;;;;;11.25;6.12;;;;;;;3.89;76.77;98319.09;4455341;32;20075;-77
2021/01/23 02:17:22;;;;;;;22.77;9.75;;;;;;;4.41;75.86;98326.72;3993375;32;15028756;-78
2021/01/23 02:25:22;;;;;;;23.65;10.57;;;;;;;4.39;75.77;98315.28;4012276;31;15015981;-76
2021/01/23 02:30:40;;;;;;;22.23;10.65;;;;;;;4.50;74.64;98319.19;3990018;32;15026774;-76
2021/01/23 02:33:08;;;;;;;18.15;10.23;;;;;;;4.50;74.64;98319.19;4441949;32;20494;-76
2021/01/23 02:35:36;;;;;;;20.20;9.93;;;;;;;4.01;75.90;98323.84;4426097;32;20095;-75
2021/01/23 02:38:02;;;;;;;19.20;9.15;;;;;;;4.03;76.28;98315.81;4428052;32;20029;-76
2021/01/23 02:40:28;;;;;;;19.30;9.80;;;;;;;3.93;76.50;98326.09;4429196;32;20101;-75
2021/01/23 02:42:54;;;;;;;17.10;8.90;;;;;;;4.01;76.47;98326.63;4427867;32;20095;-76
2021/01/23 02:45:20;;;;;;;13.85;7.40;;;;;;;4.03;76.45;98326.94;4425777;32;20030;-76
2021/01/23 02:47:46;;;;;;;16.98;8.50;;;;;;;4.06;76.62;98332.37;4422138;32;20030;-77
2021/01/23 02:50:12;;;;;;;14.25;8.40;;;;;;;4.18;76.10;98320.41;4422566;32;20033;-76
2021/01/23 02:53:08;;;;;;;14.63;8.20;;;;;;;4.36;76.11;98327.31;4424167;32;20051;-76
2021/01/23 02:55:39;;;;;;;16.35;9.57;;;;;;;4.45;75.44;98319.03;4423508;32;20057;-76
2021/01/23 02:58:08;;;;;;;17.65;9.13;;;;;;;4.44;75.40;98318.22;4421241;32;20146;-76
2021/01/23 03:00:36;;;;;;;20.02;10.68;;;;;;;4.50;75.25;98321.97;4424454;32;20164;-75
2021/01/23 03:03:03;;;;;;;19.80;10.20;;;;;;;4.46;75.21;98321.34;4418186;32;20089;-76
2021/01/23 03:05:32;;;;;;;25.33;11.77;;;;;;;4.45;75.29;98321.81;4426453;32;20078;-76
2021/01/23 03:07:57;;;;;;;34.28;12.85;;;;;;;4.42;75.10;98317.91;4423939;32;20022;-76
2021/01/23 03:10:40;;;;;;;17.20;9.60;;;;;;;4.27;75.22;98310.56;4417660;32;20111;-76
2021/01/23 03:13:08;;;;;;;17.75;8.88;;;;;;;4.26;75.72;98309.78;4416939;32;20119;-77
2021/01/23 03:15:34;;;;;;;10.82;6.78;;;;;;;4.25;75.66;98313.78;4426993;32;20114;-77
2021/01/23 03:18:00;;;;;;;15.90;8.05;;;;;;;4.14;76.06;98314.19;4424718;32;20381;-76
2021/01/23 03:20:26;;;;;;;11.05;7.07;;;;;;;4.20;76.01;98308.81;4421359;32;20126;-76
2021/01/23 03:22:53;;;;;;;14.98;7.28;;;;;;;4.15;76.28;98312.94;4423691;32;20043;-76
2021/01/23 03:25:19;;;;;;;13.20;6.55;;;;;;;4.21;76.04;98315.16;4420112;32;20109;-76
2021/01/23 03:27:44;;;;;;;19.73;7.10;;;;;;;4.23;75.94;98307.91;4427213;32;20046;-77
2021/01/23 03:30:10;;;;;;;13.75;6.45;;;;;;;4.21;76.15;98307.59;4423097;32;20023;-76
2021/01/23 03:32:36;;;;;;;15.50;7.60;;;;;;;4.25;75.91;98307.44;4427089;32;20118;-76
2021/01/23 03:35:04;;;;;;;16.85;8.05;;;;;;;4.32;75.37;98312.75;4425439;32;20030;-76
2021/01/23 03:37:32;;;;;;;15.63;8.23;;;;;;;4.44;75.04;98323.81;4417174;32;20026;-77
2021/01/23 03:39:57;;;;;;;16.42;8.32;;;;;;;4.55;74.66;98310.25;4419989;32;20076;-76
2021/01/23 03:42:23;;;;;;;13.23;7.95;;;;;;;4.60;74.77;98312.44;4415282;32;20050;-76
2021/01/23 03:44:49;;;;;;;13.02;7.50;;;;;;;4.55;74.77;98313.03;4414689;32;20033;-75
2021/01/23 03:47:15;;;;;;;15.30;7.60;;;;;;;4.73;74.54;98320.69;4409437;32;20030;-76
2021/01/23 03:49:41;;;;;;;12.60;6.93;;;;;;;4.83;74.10;98316.72;4406619;32;20026;-77
2021/01/23 03:52:06;;;;;;;11.07;6.80;;;;;;;4.91;74.19;98318.00;4416744;32;20046;-77
2021/01/23 03:54:32;;;;;;;10.35;6.47;;;;;;;4.93;74.03;98316.28;4414660;32;20146;-78
2021/01/23 03:56:58;;;;;;;11.18;5.97;;;;;;;4.97;74.07;98308.56;4411887;32;20336;-76
2021/01/23 03:59:23;;;;;;;10.02;6.20;;;;;;;5.00;73.84;98312.47;4415695;32;20337;-76
2021/01/23 04:01:49;;;;;;;14.75;6.60;;;;;;;4.99;73.72;98300.53;4411782;32;20045;-77
2021/01/23 04:04:15;;;;;;;11.32;5.97;;;;;;;4.90;73.46;98294.91;4413166;32;20077;-78
2021/01/23 04:06:41;;;;;;;10.88;5.50;;;;;;;4.89;73.66;98295.38;4409655;32;20109;-76
2021/01/23 04:09:06;;;;;;;10.15;6.18;;;;;;;4.82;73.43;98299.22;4411711;32;20038;-75
2021/01/23 04:11:32;;;;;;;9.43;6.05;;;;;;;4.76;73.20;98298.28;4410702;32;20030;-76
2021/01/23 04:13:57;;;;;;;10.48;5.43;;;;;;;4.70;74.12;98290.97;4414800;32;20470;-77
2021/01/23 04:16:23;;;;;;;8.23;5.22;;;;;;;4.65;74.19;98297.12;4412819;32;20099;-76
2021/01/23 04:18:48;;;;;;;10.35;6.28;;;;;;;4.61;74.27;98294.50;4413688;32;20053;-75
2021/01/23 04:21:14;;;;;;;9.70;5.57;;;;;;;4.63;74.14;98305.19;4408328;32;20034;-76
2021/01/23 04:23:40;;;;;;;10.07;6.18;;;;;;;4.53;74.63;98301.56;4414435;32;20026;-76
2021/01/23 04:26:05;;;;;;;11.27;5.75;;;;;;;4.54;74.53;98303.13;4408654;32;20030;-75
2021/01/23 04:28:31;;;;;;;12.23;6.87;;;;;;;4.60;74.83;98308.87;4413323;32;20051;-77
2021/01/23 04:30:57;;;;;;;12.90;6.18;;;;;;;4.64;74.46;98313.09;4410240;32;20034;-76
2021/01/23 04:33:22;;;;;;;9.45;5.75;;;;;;;4.62;74.28;98307.19;4413165;32;20112;-77
2021/01/23 04:35:48;;;;;;;11.00;5.87;;;;;;;4.66;74.00;98307.81;4409770;32;20015;-76
2021/01/23 04:38:14;;;;;;;9.73;5.55;;;;;;;4.62;73.99;98311.97;4409408;32;20104;-76
2021/01/23 04:40:39;;;;;;;9.77;5.28;;;;;;;4.54;74.37;98314.25;4413005;32;20447;-77
2021/01/23 04:43:08;;;;;;;4.97;3.22;;;;;;;4.51;74.65;98308.84;4409740;32;20462;-76
2021/01/23 04:45:34;;;;;;;8.15;4.78;;;;;;;4.59;74.06;98308.09;4411082;32;20061;-76
2021/01/23 04:48:00;;;;;;;8.65;4.82;;;;;;;4.64;73.89;98313.09;4410296;32;20030;-76
2021/01/23 04:50:25;;;;;;;8.15;4.62;;;;;;;4.68;73.38;98316.50;4408946;32;20038;-75
2021/01/23 04:52:51;;;;;;;7.87;4.60;;;;;;;4.67;73.84;98316.97;4413439;32;20070;-77
2021/01/23 04:55:17;;;;;;;8.32;4.60;;;;;;;4.73;73.53;98310.34;4410712;32;20033;-78
2021/01/23 04:57:43;;;;;;;9.95;5.22;;;;;;;4.75;73.20;98313.44;4414370;32;20064;-77
2021/01/23 05:00:10;;;;;;;8.80;4.40;;;;;;;4.74;72.88;98320.25;4412666;32;20078;-75
2021/01/23 05:02:36;;;;;;;6.93;4.05;;;;;;;4.76;72.90;98320.56;4414227;32;20111;-76
2021/01/23 05:05:03;;;;;;;12.73;6.05;;;;;;;4.75;72.75;98321.03;4407900;32;20027;-77
2021/01/23 05:12:48;;;;;;;7.47;4.40;;;;;;;5.19;71.01;98328.75;3989332;32;15023785;-77
2021/01/23 05:17:50;;;;;;;7.70;4.18;;;;;;;4.84;72.18;98323.84;4006557;31;15015887;-75
2021/01/23 05:25:51;;;;;;;7.07;4.05;;;;;;;4.95;71.81;98333.34;3989805;32;15028585;-76
2021/01/23 05:28:27;;;;;;;9.57;4.47;;;;;;;4.82;71.67;98327.06;4442451;32;20076;-77
2021/01/23 05:30:53;;;;;;;8.93;5.00;;;;;;;4.89;71.96;98332.37;4441858;32;20073;-75
2021/01/23 05:33:22;;;;;;;8.40;4.45;;;;;;;4.83;71.83;98328.66;4441975;32;20078;-78
2021/01/23 05:38:45;;;;;;;11.05;4.93;;;;;;;4.80;72.99;98332.34;3989641;32;15024257;-75
2021/01/23 05:43:49;;;;;;;9.35;4.20;;;;;;;4.74;73.24;98339.75;3986346;32;15025115;-76
2021/01/23 05:48:54;;;;;;;10.82;5.85;;;;;;;4.80;73.22;98334.34;3990888;32;15024235;-76
2021/01/23 05:51:21;;;;;;;7.75;4.53;;;;;;;4.81;73.27;98330.31;4445200;32;20025;-76
2021/01/23 05:53:47;;;;;;;8.02;4.55;;;;;;;4.64;73.23;98332.59;4445310;32;20087;-76
2021/01/23 05:56:13;;;;;;;7.55;3.80;;;;;;;4.73;73.15;98327.06;4443203;32;20068;-76
2021/01/23 05:58:41;;;;;;;11.05;4.50;;;;;;;4.86;72.83;98326.94;4440192;32;20473;-76
2021/01/23 06:01:10;;;;;;;8.50;5.25;;;;;;;4.98;72.87;98331.63;4442456;32;20086;-76
2021/01/23 06:03:41;;;;;;;8.13;4.82;;;;;;;5.06;72.61;98327.34;4447397;32;20041;-76
2021/01/23 06:06:07;;;;;;;8.05;4.37;;;;;;;5.12;72.35;98331.84;4438205;32;20395;-76
2021/01/23 06:08:39;;;;;;;8.75;4.60;;;;;;;5.08;72.09;98334.00;4438828;32;20548;-77
2021/01/23 06:11:27;;;;;;;7.72;4.50;;;;;;;5.10;72.42;98328.75;4445604;32;20029;-76
2021/01/23 06:13:56;;;;;;;9.18;4.72;;;;;;;5.13;72.63;98335.41;4441771;32;20022;-78
2021/01/23 06:16:38;;;;;;;9.35;5.20;;;;;;;5.09;72.45;98335.53;4444066;32;20064;-77
2021/01/23 06:27:12;;;;;;;8.40;5.18;;;;;;;5.68;71.28;98351.03;4011060;31;15015351;-79
2021/01/23 06:40:14;;;;;;;8.05;4.47;;;;;;;5.60;70.88;98358.91;4010636;31;15021597;-76
2021/01/23 06:42:42;;;;;;;;;;;;;;;5.60;70.88;98358.91;4474825;32;20055;-75
2021/01/23 06:47:50;;;;;;;8.95;3.28;;;;;;;5.47;70.64;98354.72;3986233;32;15024092;-77
2021/01/23 06:50:40;;;;;;;9.07;2.95;;;;;;;5.47;70.64;98354.72;4436254;32;20316;-77
2021/01/23 06:53:25;;;;;;;5.43;2.85;;;;;;;4.96;72.15;98353.59;4438927;32;20087;-75
2021/01/23 06:55:52;;;;;;;;;;;;;;;4.83;71.72;98344.56;4442844;32;20038;-76
2021/01/23 06:58:35;;;;;;;6.07;2.92;;;;;;;5.03;71.87;98358.91;4436534;32;19959;-76
2021/01/23 07:01:02;;;;;;;3.97;2.53;;;;;;;5.06;71.64;98355.22;4439042;32;20038;-75
2021/01/23 07:03:29;;;;;;;7.15;2.67;;;;;;;5.04;72.02;98357.66;4437664;32;20068;-77
2021/01/23 07:05:57;;;;;;;8.23;3.40;;;;;;;5.05;72.13;98351.62;4438050;32;20104;-76
2021/01/23 07:16:37;;;;;;;7.78;3.60;;;;;;;5.19;71.77;98372.59;3987686;32;15023197;-76
2021/01/23 07:19:06;;;;;;;5.65;2.83;;;;;;;5.19;71.77;98372.59;4441203;32;20030;-75
2021/01/23 07:21:35;;;;;;;9.80;4.43;;;;;;;4.76;72.51;98365.16;4443972;32;20085;-75
2021/01/23 07:24:02;;;;;;;10.48;5.47;;;;;;;4.84;72.50;98369.19;4445407;32;20471;-76
2021/01/23 07:26:28;;;;;;;8.20;4.43;;;;;;;4.82;72.23;98366.06;4444327;32;20081;-75
2021/01/23 07:28:56;;;;;;;16.20;6.30;;;;;;;4.85;72.20;98376.31;4444323;32;20091;-76
2021/01/23 07:31:24;;;;;;;11.77;7.03;;;;;;;4.88;72.51;98377.44;4443628;32;20783;-75
2021/01/23 07:33:50;;;;;;;11.07;6.28;;;;;;;4.89;72.29;98381.75;4438324;32;20060;-74
2021/01/23 07:36:37;;;;;;;10.68;6.05;;;;;;;4.87;72.62;98382.22;4438003;32;20697;-75
2021/01/23 07:39:06;;;;;;;9.20;5.40;;;;;;;4.88;72.62;98386.53;4436742;32;20093;-75
2021/01/23 07:41:34;;;;;;;10.00;4.93;;;;;;;4.85;72.74;98381.12;4432093;32;20343;-77
2021/01/23 07:44:02;;;;;;;13.18;6.15;;;;;;;4.85;72.66;98386.69;4437022;32;20109;-76
2021/01/23 07:46:36;;;;;;;12.07;7.18;;;;;;;4.82;72.72;98387.59;4435332;32;20092;-76
2021/01/23 07:49:02;;;;;;;9.67;5.23;;;;;;;4.85;72.84;98384.66;4432841;32;20098;-76
2021/01/23 07:51:28;;;;;;;10.77;5.55;;;;;;;4.85;73.07;98387.44;4432410;32;20084;-76
2021/01/23 07:54:03;;;;;;;14.77;5.57;;;;;;;4.82;72.51;98388.38;4430493;32;20056;-75
2021/01/23 07:56:28;;;;;;;8.68;3.08;;;;;;;4.76;72.33;98387.44;4433728;32;20388;-76
2021/01/23 07:58:54;;;;;;;9.02;4.40;;;;;;;4.73;71.92;98395.91;4433947;32;20045;-75
2021/01/23 08:01:20;;;;;;;11.52;5.10;;;;;;;4.81;72.33;98392.41;4437481;32;20033;-76
2021/01/23 08:03:45;;;;;;;11.32;5.32;;;;;;;4.87;71.87;98395.34;4435780;32;20060;-75
2021/01/23 08:06:26;;;;;;;10.48;4.78;;;;;;;4.79;71.80;98394.09;4435397;32;20025;-75
2021/01/23 08:08:53;;;;;;;9.05;4.60;;;;;;;4.89;72.30;98404.03;4434434;32;20053;-76
2021/01/23 08:11:41;;;;;;;8.90;4.62;;;;;;;4.90;72.24;98413.94;4434991;32;20022;-75
2021/01/23 08:16:53;;;;;;;11.98;4.80;;;;;;;4.73;72.79;98410.63;3989233;32;15023153;-76
2021/01/23 08:19:20;;;;;;;11.50;5.15;;;;;;;4.42;73.48;98407.00;4439208;32;20108;-77
2021/01/23 08:22:06;;;;;;;11.57;5.18;;;;;;;4.55;73.63;98412.50;4441576;32;20061;-76
2021/01/23 08:24:32;;;;;;;13.98;6.20;;;;;;;4.74;73.25;98420.53;4446201;32;20033;-76
2021/01/23 08:27:13;;;;;;;15.60;6.18;;;;;;;4.75;73.15;98421.31;4443549;32;20100;-76
2021/01/23 08:29:41;;;;;;;17.30;6.00;;;;;;;4.76;73.35;98414.50;4444322;32;20065;-75
2021/01/23 08:32:07;;;;;;;12.40;6.30;;;;;;;4.81;73.41;98420.25;4442312;32;20064;-76
2021/01/23 08:34:33;;;;;;;19.05;6.65;;;;;;;4.85;73.27;98411.78;4434829;32;20046;-75
2021/01/23 08:36:59;;;;;;;22.58;7.95;;;;;;;4.92;72.95;98417.84;4430192;32;20037;-76
2021/01/23 08:39:24;;;;;;;12.45;6.00;;;;;;;4.96;73.10;98415.69;4426859;32;20033;-77
2021/01/23 08:41:50;;;;;;;18.10;6.93;;;;;;;5.01;72.27;98409.53;4429434;32;20554;-76
2021/01/23 08:44:15;;;;;;;16.12;7.68;;;;;;;5.12;72.04;98418.25;4427492;32;20062;-77
2021/01/23 08:46:41;;;;;;;21.55;7.97;;;;;;;5.46;71.55;98420.09;4427030;32;20425;-77
2021/01/23 08:49:07;;;;;;;15.85;7.20;;;;;;;5.29;71.47;98408.41;4427165;32;20073;-76
2021/01/23 08:51:33;;;;;;;16.67;7.07;;;;;;;5.38;71.44;98416.81;4427165;32;20068;-75
2021/01/23 08:53:59;;;;;;;15.77;7.18;;;;;;;5.42;71.32;98416.66;4422997;32;20087;-75
2021/01/23 08:56:25;;;;;;;19.33;7.70;;;;;;;5.40;71.28;98411.53;4430826;32;20057;-76
2021/01/23 08:58:51;;;;;;;14.48;6.85;;;;;;;5.54;70.75;98419.34;4427559;32;20446;-76
2021/01/23 09:01:16;;;;;;;15.32;6.87;;;;;;;5.69;70.87;98417.53;4428488;32;20491;-77
2021/01/23 09:03:42;;;;;;;17.17;7.32;;;;;;;5.84;70.09;98428.91;4429133;32;20038;-76
2021/01/23 09:06:08;;;;;;;13.50;6.43;;;;;;;6.24;69.16;98418.38;4427854;32;20129;-76
2021/01/23 09:08:33;;;;;;;15.73;7.10;;;;;;;5.89;68.87;98423.47;4427159;32;20142;-76
2021/01/23 09:10:59;;;;;;;16.77;8.40;;;;;;;6.00;69.35;98431.41;4423523;32;20064;-77
2021/01/23 09:13:24;;;;;;;17.10;7.70;;;;;;;6.19;69.71;98429.41;4424977;32;20026;-75
2021/01/23 09:15:50;;;;;;;16.50;8.10;;;;;;;6.41;68.52;98430.78;4428041;32;20078;-77
2021/01/23 09:18:16;;;;;;;17.87;8.93;;;;;;;6.62;67.70;98435.44;4426998;32;20067;-76
2021/01/23 09:20:42;;;;;;;17.73;8.55;;;;;;;6.72;67.04;98430.63;4428301;32;20030;-76
2021/01/23 09:23:08;;;;;;;15.73;7.55;;;;;;;6.87;66.79;98434.31;4424351;32;20069;-76
2021/01/23 09:25:33;;;;;;;14.68;7.12;;;;;;;6.85;66.20;98434.78;4425418;32;20167;-77
2021/01/23 09:27:59;;;;;;;14.20;7.40;;;;;;;6.89;66.44;98435.41;4419705;32;20048;-77
2021/01/23 09:30:25;;;;;;;16.42;7.43;;;;;;;6.69;66.33;98440.69;4418408;32;20057;-77
2021/01/23 09:32:50;;;;;;;14.82;7.60;;;;;;;6.74;66.50;98433.69;4414564;32;20060;-76
2021/01/23 09:35:16;;;;;;;18.52;7.95;;;;;;;6.65;66.61;98425.31;4418334;32;20129;-77
2021/01/23 09:37:42;;;;;;;15.45;7.45;;;;;;;6.65;66.88;98433.72;4417352;32;20113;-78
2021/01/23 09:40:08;;;;;;;16.92;7.80;;;;;;;6.77;66.44;98435.56;4418280;32;20103;-78
2021/01/23 09:42:34;;;;;;;16.02;7.70;;;;;;;6.68;67.45;98436.34;4417551;32;20037;-78
2021/01/23 09:45:00;;;;;;;11.32;6.65;;;;;;;6.53;67.62;98427.06;4417199;32;20035;-79
2021/01/23 09:47:25;;;;;;;12.93;6.65;;;;;;;6.59;66.80;98430.78;4412165;32;20038;-77
2021/01/23 09:49:51;;;;;;;14.10;6.57;;;;;;;6.68;66.45;98429.97;4418073;32;20049;-77
2021/01/23 09:52:17;;;;;;;17.08;7.65;;;;;;;6.75;66.29;98432.47;4417157;32;20211;-77
2021/01/23 09:54:43;;;;;;;18.02;8.82;;;;;;;6.66;67.00;98432.50;4415404;32;20075;-77
2021/01/23 09:57:09;;;;;;;11.35;5.82;;;;;;;6.63;66.44;98444.59;4412631;32;20038;-78
2021/01/23 09:59:34;;;;;;;14.43;6.72;;;;;;;6.47;66.64;98431.72;4413612;32;20428;-78
2021/01/23 10:02:01;;;;;;;11.73;5.68;;;;;;;6.55;67.29;98443.34;4416574;32;20057;-77
2021/01/23 10:04:27;;;;;;;14.35;6.82;;;;;;;6.51;66.42;98445.53;4415761;32;20057;-77
2021/01/23 10:06:54;;;;;;;19.02;8.07;;;;;;;6.19;67.68;98448.97;4417857;32;20078;-76
2021/01/23 10:09:20;;;;;;;19.25;9.32;;;;;;;6.14;68.01;98450.34;4415034;32;20065;-77
2021/01/23 10:11:47;;;;;;;15.93;9.27;;;;;;;6.00;68.28;98465.69;4415868;32;20356;-77
2021/01/23 10:14:13;;;;;;;20.25;10.50;;;;;;;5.72;69.02;98466.81;4418856;32;20454;-77
2021/01/23 10:16:39;;;;;;;19.75;8.95;;;;;;;5.88;68.68;98466.59;4414034;32;20043;-76
2021/01/23 10:19:05;;;;;;;18.92;9.85;;;;;;;5.71;68.95;98473.62;4417288;32;20029;-78
2021/01/23 10:21:31;;;;;;;18.05;9.50;;;;;;;5.59;69.97;98473.75;4417364;32;20171;-76
2021/01/23 10:23:57;;;;;;;16.42;8.95;;;;;;;5.41;70.54;98463.31;4415332;32;20053;-77
2021/01/23 10:26:24;;;;;;;20.62;10.13;;;;;;;5.57;70.58;98470.63;4415251;32;20017;-77
2021/01/23 10:28:50;;;;;;;18.40;10.07;;;;;;;5.61;70.26;98471.25;4416586;32;20057;-77
2021/01/23 10:31:16;;;;;;;17.25;9.50;;;;;;;5.55;70.19;98481.47;4415886;32;20085;-77
2021/01/23 10:33:41;;;;;;;19.12;9.93;;;;;;;5.61;70.36;98479.63;4414826;32;20034;-78
2021/01/23 10:36:07;;;;;;;18.80;10.25;;;;;;;5.53;70.15;98475.59;4415938;32;20093;-77
2021/01/23 10:38:33;;;;;;;18.55;9.82;;;;;;;5.59;70.26;98474.50;4412147;32;20055;-76
2021/01/23 10:40:59;;;;;;;14.75;7.90;;;;;;;5.66;70.69;98476.25;4411325;32;20061;-77
2021/01/23 10:43:25;;;;;;;17.70;9.43;;;;;;;5.59;70.79;98474.50;4418318;32;20038;-77
2021/01/23 10:45:50;;;;;;;15.68;8.88;;;;;;;5.82;70.30;98481.59;4417237;32;20106;-76
2021/01/23 10:48:16;;;;;;;14.90;8.32;;;;;;;5.66;69.61;98484.63;4414903;32;20026;-76
2021/01/23 10:50:42;;;;;;;15.52;8.27;;;;;;;5.71;70.15;98489.59;4415599;32;20022;-76
2021/01/23 10:53:08;;;;;;;19.48;9.38;;;;;;;5.65;70.03;98488.66;4418169;32;20513;-76
2021/01/23 10:55:34;;;;;;;12.45;7.10;;;;;;;5.83;70.26;98489.50;4418417;32;20065;-76
2021/01/23 10:57:59;;;;;;;16.58;7.22;;;;;;;5.74;69.00;98491.47;4416692;32;20041;-77
2021/01/23 11:00:25;;;;;;;14.90;7.10;;;;;;;5.88;68.04;98496.50;4413174;32;20392;-76
2021/01/23 11:02:50;;;;;;;9.43;4.05;;;;;;;6.00;68.75;98499.19;4414787;32;20407;-78
2021/01/23 11:05:17;;;;;;;6.95;2.37;;;;;;;5.76;65.83;98494.56;4414350;32;20120;-77
2021/01/23 11:07:42;;;;;;;4.05;1.67;;;;;;;5.66;65.73;98491.00;4415531;32;20026;-78
2021/01/23 11:10:09;;;;;;;2.40;1.27;;;;;;;5.61;64.74;98497.16;4414967;32;20086;-77
2021/01/23 11:12:35;;;;;;;2.55;1.55;;;;;;;5.30;65.71;98493.59;4414755;32;20080;-77
2021/01/23 11:15:00;;;;;;;3.10;1.23;;;;;;;5.17;66.07;98495.72;4415857;32;20037;-78
2021/01/23 11:17:26;;;;;;;1.83;0.85;;;;;;;5.24;66.29;98495.44;4414779;32;20092;-77
2021/01/23 11:19:52;;;;;;;0.90;0.60;;;;;;;5.27;67.08;98490.94;4413424;32;20015;-78
2021/01/23 11:22:17;;;;;;;2.33;0.77;;;;;;;5.36;65.68;98494.56;4411042;32;20146;-77
2021/01/23 11:24:43;;;;;;;2.03;0.98;;;;;;;5.45;65.19;98497.41;4416212;32;20021;-77
2021/01/23 11:27:09;;;;;;;2.90;0.80;;;;;;;5.51;65.94;98498.34;4415001;32;20095;-78
2021/01/23 11:29:35;;;;;;;4.32;1.40;;;;;;;5.58;65.05;98502.88;4426653;32;20139;-77
2021/01/23 11:32:02;;;;;;;1.12;0.50;;;;;;;5.51;65.90;98495.56;4412841;32;20075;-79
2021/01/23 11:34:27;;;;;;;1.90;0.40;;;;;;;5.33;66.47;98501.06;4416221;32;20271;-77
2021/01/23 11:36:53;;;;;;;1.65;0.55;;;;;;;5.44;65.22;98495.84;4413833;32;20101;-77
2021/01/23 11:39:19;;;;;;;3.37;1.37;;;;;;;5.46;65.64;98500.97;4414388;32;20097;-78
2021/01/23 11:41:45;;;;;;;1.48;0.60;;;;;;;5.72;66.40;98499.53;4413498;32;20419;-77
2021/01/23 11:44:11;;;;;;;1.65;0.93;;;;;;;5.65;65.68;98491.44;4416523;32;20049;-77
2021/01/23 11:46:37;;;;;;;4.20;0.55;;;;;;;5.87;65.45;98497.75;4415292;32;20052;-78
2021/01/23 11:49:03;;;;;;;3.75;0.55;;;;;;;5.73;63.66;98501.06;4415014;32;20435;-78
2021/01/23 11:51:29;;;;;;;3.45;0.57;;;;;;;5.60;64.21;98494.81;4411524;32;20403;-76
2021/01/23 11:53:54;;;;;;;1.87;0.70;;;;;;;5.53;65.27;98489.53;4415299;32;20033;-77
2021/01/23 11:56:20;;;;;;;5.90;0.77;;;;;;;5.56;65.15;98492.16;4413084;32;20598;-76
2021/01/23 11:58:47;;;;;;;5.12;0.80;;;;;;;5.71;64.21;98492.41;4410965;32;20429;-77
2021/01/23 12:01:12;;;;;;;2.58;0.70;;;;;;;5.88;63.05;98497.28;4415862;32;20498;-77
2021/01/23 12:03:38;;;;;;;3.40;0.90;;;;;;;5.85;62.98;98497.41;4415936;32;20114;-76
2021/01/23 12:06:04;;;;;;;2.40;0.77;;;;;;;5.76;62.84;98494.56;4415435;32;20053;-76
2021/01/23 12:08:29;;;;;;;3.30;0.70;;;;;;;5.82;63.97;98501.13;4415657;32;20061;-78
2021/01/23 12:10:56;;;;;;;2.15;0.62;;;;;;;5.79;62.85;98494.44;4412295;32;20459;-78
2021/01/23 12:13:22;;;;;;;3.45;0.77;;;;;;;5.80;62.93;98501.56;4415285;32;20037;-77
2021/01/23 12:15:48;;;;;;;3.35;0.98;;;;;;;5.76;63.04;98503.72;4415778;32;20137;-76
2021/01/23 12:18:14;;;;;;;1.75;0.73;;;;;;;5.70;63.28;98505.56;4415635;32;20101;-77
2021/01/23 12:20:40;;;;;;;2.58;0.90;;;;;;;5.57;63.98;98504.91;4415948;32;20107;-77
2021/01/23 12:23:06;;;;;;;7.37;2.47;;;;;;;5.81;64.37;98511.53;4412201;32;20081;-77
2021/01/23 12:25:32;;;;;;;7.37;1.80;;;;;;;5.88;64.31;98508.44;4417780;32;20195;-77
2021/01/23 12:27:59;;;;;;;3.72;1.40;;;;;;;5.97;62.92;98505.69;4412768;32;20102;-76
2021/01/23 12:30:24;;;;;;;3.50;1.52;;;;;;;6.04;62.47;98505.38;4413148;32;20077;-77
2021/01/23 12:32:50;;;;;;;7.30;1.55;;;;;;;6.08;62.96;98506.00;4414630;32;20133;-77
2021/01/23 12:35:16;;;;;;;4.12;1.58;;;;;;;6.17;62.49;98507.28;4416172;32;20057;-77
2021/01/23 12:37:43;;;;;;;3.87;1.50;;;;;;;6.24;62.46;98509.75;4412608;32;20053;-77
2021/01/23 12:40:09;;;;;;;4.70;1.95;;;;;;;6.38;62.08;98511.97;4414831;32;20049;-76
2021/01/23 12:42:35;;;;;;;3.70;1.40;;;;;;;6.03;63.81;98505.84;4414997;32;20065;-77